Time;durP1;ratioP1;P1;durP2;ratioP2;P2;SDS_P1;SDS_P2;PMS_P1;PMS_P2;Temp;Humidity;BMP_temperature;BMP_pressure;BME280_temperature;BME280_humidity;BME280_pressure;Samples;Min_cycle;Max_cycle;Signal;HPM_P1;HPM_P2
2022/10/27 00:00:11;;;;;;;8.30;5.60;;;;;;;8.99;87.18;99594.68;102189;1296;76135;-23
2022/10/27 00:02:40;;;;;;;8.70;6.30;;;;;;;9.32;86.43;99591.07;102144;1300;75473;-24
2022/10/27 00:05:09;;;;;;;12.10;6.50;;;;;;;9.72;85.04;99596.38;102265;1301;62937;-24
2022/10/27 00:07:37;;;;;;;13.30;7.10;;;;;;;9.73;84.06;99599.40;102258;1297;62683;-24
2022/10/27 00:10:05;;;;;;;14.30;7.60;;;;;;;9.45;84.67;99595.60;102299;1300;76339;-24
2022/10/27 00:12:33;;;;;;;10.50;7.70;;;;;;;9.20;86.06;99600.02;102259;1297;75735;-24
2022/10/27 00:15:00;;;;;;;14.20;6.70;;;;;;;8.96;87.31;99603.32;101985;1304;74688;-24
2022/10/27 00:17:28;;;;;;;9.10;6.20;;;;;;;9.12;87.48;99604.17;102287;1299;62046;-24
2022/10/27 00:19:55;;;;;;;11.80;7.60;;;;;;;9.30;86.27;99605.61;102296;1299;62699;-24
2022/10/27 00:22:23;;;;;;;10.60;7.30;;;;;;;9.25;86.12;99608.52;102286;1299;76413;-24
2022/10/27 00:24:50;;;;;;;14.90;7.60;;;;;;;8.99;86.88;99611.66;102288;1291;76746;-24
2022/10/27 00:27:18;;;;;;;18.50;8.50;;;;;;;8.71;87.65;99612.59;102098;1299;74175;-24
2022/10/27 00:29:45;;;;;;;12.60;5.80;;;;;;;8.53;88.94;99616.20;102270;1296;64480;-24
2022/10/27 00:32:13;;;;;;;8.60;6.20;;;;;;;8.78;88.61;99614.05;102302;1294;61717;-23
2022/10/27 00:34:40;;;;;;;8.80;6.40;;;;;;;9.21;86.06;99615.42;102340;1292;76258;-23
2022/10/27 00:37:08;;;;;;;13.10;8.00;;;;;;;9.13;85.86;99618.83;102328;1301;76726;-23
2022/10/27 00:39:35;;;;;;;14.10;8.20;;;;;;;8.87;86.41;99625.59;102299;1293;75013;-24
2022/10/27 00:42:03;;;;;;;12.40;7.20;;;;;;;8.67;87.29;99625.98;102283;1298;61901;-24
2022/10/27 00:44:40;;;;;;;10.00;5.10;;;;;;;8.54;87.69;99628.93;102301;1298;62029;-23
2022/10/27 00:47:22;;;;;;;10.00;5.00;;;;;;;8.99;87.18;99627.18;102067;1302;74411;-23
2022/10/27 00:50:04;;;;;;;8.00;6.60;;;;;;;9.48;85.08;99621.58;102302;1301;76815;-24
2022/10/27 00:52:31;;;;;;;14.50;7.70;;;;;;;9.47;84.84;99623.36;102231;1295;74083;-24
2022/10/27 00:55:01;;;;;;;10.10;7.00;;;;;;;9.24;85.40;99626.61;102213;1290;61811;-24
2022/10/27 00:57:29;;;;;;;15.00;7.80;;;;;;;8.95;86.71;99625.25;102159;1301;62511;-24
2022/10/27 00:59:57;;;;;;;10.00;5.50;;;;;;;8.78;87.79;99633.77;102048;1302;76843;-24
2022/10/27 01:02:24;;;;;;;9.80;6.20;;;;;;;9.17;87.44;99632.64;102286;1299;76771;-24
2022/10/27 01:04:55;;;;;;;13.20;7.60;;;;;;;9.58;85.48;99626.96;102312;1297;75078;-24
2022/10/27 01:07:22;;;;;;;14.90;8.40;;;;;;;9.55;84.86;99628.71;101948;1303;61819;-25
2022/10/27 01:09:50;;;;;;;19.00;8.40;;;;;;;9.32;85.47;99631.14;102039;1303;61823;-25
2022/10/27 01:12:17;;;;;;;19.00;8.70;;;;;;;9.06;86.91;99633.65;101966;1303;75360;-25
2022/10/27 01:14:45;;;;;;;11.20;6.80;;;;;;;8.89;88.13;99633.05;102328;1299;76489;-27
2022/10/27 01:17:16;;;;;;;12.80;7.30;;;;;;;9.29;87.51;99634.11;101914;1303;74202;-25
2022/10/27 01:20:05;;;;;;;9.60;6.80;;;;;;;9.57;85.99;99632.23;101897;1304;62803;-24
2022/10/27 01:23:01;;;;;;;12.90;7.50;;;;;;;9.47;85.91;99631.15;102139;1297;61500;-23
2022/10/27 01:25:44;;;;;;;10.40;7.50;;;;;;;9.26;86.84;99631.72;102166;1301;76096;-23
2022/10/27 01:28:58;;;;;;;10.10;5.70;;;;;;;9.05;88.28;99633.08;102020;1297;75984;-23
2022/10/27 01:31:28;;;;;;;9.20;6.10;;;;;;;9.70;86.37;99631.36;101874;1299;75241;-24
2022/10/27 01:34:02;;;;;;;13.30;7.80;;;;;;;9.81;84.68;99631.44;101893;1304;62412;-23
2022/10/27 01:36:41;;;;;;;9.30;7.20;;;;;;;9.67;85.15;99633.30;102123;1301;61663;-23
2022/10/27 01:39:38;;;;;;;10.90;7.10;;;;;;;9.48;85.71;99635.45;102053;1301;76391;-23
2022/10/27 01:42:13;;;;;;;12.00;7.30;;;;;;;9.19;86.51;99640.48;102017;1300;77104;-23
2022/10/27 01:44:43;;;;;;;9.10;6.20;;;;;;;9.03;87.47;99641.18;101836;1308;74844;-23
2022/10/27 01:47:11;;;;;;;13.70;6.50;;;;;;;9.54;86.55;99641.27;102003;1302;62582;-23
2022/10/27 01:49:40;;;;;;;10.20;6.70;;;;;;;10.00;84.33;99639.01;101972;1302;63037;-23
2022/10/27 01:52:36;;;;;;;11.50;6.90;;;;;;;10.01;83.64;99642.42;101963;1304;74400;-23
2022/10/27 01:55:04;;;;;;;10.40;6.70;;;;;;;9.79;84.17;99641.85;102157;1299;75649;-23
2022/10/27 01:57:47;;;;;;;10.10;6.60;;;;;;;9.49;85.27;99644.39;101912;1301;75241;-23
2022/10/27 02:00:14;;;;;;;9.90;5.00;;;;;;;9.35;86.11;99641.13;102119;1303;64429;-23
2022/10/27 02:03:13;;;;;;;11.80;5.20;;;;;;;9.75;85.24;99649.73;101874;1299;63120;-24
2022/10/27 02:06:11;;;;;;;11.00;6.80;;;;;;;10.14;83.28;99654.02;102203;1301;75075;-23
2022/10/27 02:09:07;;;;;;;10.20;7.00;;;;;;;9.99;83.23;99655.77;102061;1298;76581;-23
2022/10/27 02:11:36;;;;;;;10.90;6.50;;;;;;;9.56;84.24;99656.20;102042;1299;75238;-23
2022/10/27 02:14:03;;;;;;;9.60;6.20;;;;;;;9.19;86.24;99657.63;102227;1301;61534;-23
2022/10/27 02:16:33;;;;;;;10.90;6.60;;;;;;;9.37;86.14;99660.09;102300;1285;61856;-23
2022/10/27 02:19:04;;;;;;;9.30;6.90;;;;;;;9.79;84.78;99659.33;102041;1299;75398;-23
2022/10/27 02:21:32;;;;;;;11.30;6.70;;;;;;;9.76;83.82;99663.36;102037;1298;75892;-24
2022/10/27 02:24:00;;;;;;;14.30;7.80;;;;;;;9.50;84.14;99662.14;102105;1293;75533;-23
2022/10/27 02:26:33;;;;;;;10.10;7.00;;;;;;;9.19;85.48;99663.55;102076;1298;61862;-23
2022/10/27 02:29:04;;;;;;;14.10;6.40;;;;;;;8.96;86.26;99667.56;102105;1295;63071;-23
2022/10/27 02:31:36;;;;;;;9.20;6.40;;;;;;;9.30;85.61;99674.03;102091;1301;76215;-23
2022/10/27 02:34:05;;;;;;;10.10;6.90;;;;;;;9.62;84.13;99672.26;101914;1303;75292;-23
2022/10/27 02:36:33;;;;;;;10.90;7.40;;;;;;;9.55;84.08;99673.25;102275;1299;75020;-23
2022/10/27 02:39:00;;;;;;;10.70;7.30;;;;;;;9.32;85.22;99676.48;102035;1302;62040;-23
2022/10/27 02:41:28;;;;;;;14.30;7.40;;;;;;;9.08;86.05;99677.37;102283;1299;61791;-23
2022/10/27 02:43:55;;;;;;;11.30;6.40;;;;;;;9.07;87.02;99680.92;102308;1300;74605;-23
2022/10/27 02:46:23;;;;;;;11.00;7.50;;;;;;;9.54;85.35;99680.77;102265;1290;75838;-23
2022/10/27 02:48:50;;;;;;;12.90;7.30;;;;;;;9.58;84.81;99684.49;102244;1294;75131;-24
2022/10/27 02:51:18;;;;;;;15.30;8.10;;;;;;;9.43;85.28;99684.95;102238;1291;63013;-24
2022/10/27 02:53:45;;;;;;;11.90;8.00;;;;;;;9.19;86.50;99685.48;102234;1299;61630;-23
2022/10/27 02:56:13;;;;;;;10.00;6.00;;;;;;;8.96;87.56;99683.20;102215;1281;76477;-23
2022/10/27 02:58:40;;;;;;;11.90;7.30;;;;;;;9.28;87.32;99683.36;102298;1298;76770;-23
2022/10/27 03:01:08;;;;;;;15.70;7.60;;;;;;;9.56;85.61;99682.60;102312;1294;73814;-24
2022/10/27 03:03:35;;;;;;;13.10;8.50;;;;;;;9.48;85.59;99683.61;102257;1301;62084;-23
2022/10/27 03:06:03;;;;;;;12.60;7.90;;;;;;;9.31;86.31;99691.11;102151;1298;61169;-23
2022/10/27 03:08:30;;;;;;;14.10;7.60;;;;;;;9.09;87.14;99693.61;102225;1300;75334;-23
2022/10/27 03:10:58;;;;;;;11.80;7.60;;;;;;;8.94;88.24;99701.81;102317;1297;75524;-23
2022/10/27 03:13:25;;;;;;;15.50;7.30;;;;;;;9.18;87.96;99701.89;102312;1298;75244;-23
2022/10/27 03:15:53;;;;;;;11.70;7.60;;;;;;;9.43;86.64;99702.65;102278;1292;62059;-24
2022/10/27 03:18:20;;;;;;;12.30;8.20;;;;;;;9.31;86.87;99702.41;102239;1301;62850;-23
2022/10/27 03:20:48;;;;;;;13.40;9.00;;;;;;;8.94;88.49;99701.83;102329;1293;76309;-23
2022/10/27 03:23:15;;;;;;;9.20;6.40;;;;;;;8.81;89.40;99704.73;102089;1299;76747;-23
2022/10/27 03:25:44;;;;;;;13.50;7.90;;;;;;;9.22;88.21;99705.45;102185;1301;75285;-23
2022/10/27 03:28:14;;;;;;;16.10;7.70;;;;;;;9.42;86.64;99707.05;102313;1299;63010;-23
2022/10/27 03:30:42;;;;;;;14.50;9.30;;;;;;;9.41;86.63;99711.46;102251;1296;61701;-23
2022/10/27 03:33:14;;;;;;;12.20;8.20;;;;;;;9.14;87.69;99713.70;102285;1298;74551;-23
2022/10/27 03:35:41;;;;;;;10.10;7.10;;;;;;;8.89;88.98;99714.96;102284;1294;76583;-23
2022/10/27 03:38:09;;;;;;;10.20;6.70;;;;;;;9.23;88.00;99716.79;102287;1298;74367;-23
2022/10/27 03:40:37;;;;;;;13.20;8.70;;;;;;;9.58;86.14;99719.15;102369;1299;61962;-24
2022/10/27 03:43:04;;;;;;;15.00;10.20;;;;;;;9.39;86.19;99719.37;102305;1298;63180;-23
2022/10/27 03:45:33;;;;;;;14.10;9.10;;;;;;;9.22;87.44;99715.44;102285;1298;76492;-23
2022/10/27 03:48:03;;;;;;;15.60;9.00;;;;;;;9.09;87.73;99721.85;102252;1298;75534;-23
2022/10/27 03:50:31;;;;;;;10.90;6.90;;;;;;;8.97;88.23;99717.73;102054;1301;75012;-23
2022/10/27 03:52:59;;;;;;;12.50;6.90;;;;;;;9.36;87.27;99719.58;102318;1294;62614;-23
2022/10/27 03:55:26;;;;;;;8.90;7.00;;;;;;;9.74;85.58;99714.45;101985;1303;62903;-23
2022/10/27 03:57:54;;;;;;;14.40;8.10;;;;;;;9.74;84.85;99715.31;102318;1299;76201;-23
2022/10/27 04:00:21;;;;;;;10.80;7.80;;;;;;;9.51;85.20;99719.98;102291;1301;76994;-23
2022/10/27 04:02:53;;;;;;;10.90;7.50;;;;;;;9.27;85.93;99718.29;102211;1295;73784;-23
2022/10/27 04:05:21;;;;;;;11.90;8.00;;;;;;;9.29;86.75;99717.10;102029;1287;63232;-23
2022/10/27 04:07:49;;;;;;;11.90;8.90;;;;;;;9.67;85.41;99719.27;102126;1299;62871;-23
2022/10/27 04:10:16;;;;;;;12.80;8.40;;;;;;;9.67;84.78;99719.48;102339;1297;75367;-24
2022/10/27 04:12:48;;;;;;;13.30;9.40;;;;;;;9.48;85.07;99717.10;102220;1301;76745;-24
2022/10/27 04:15:17;;;;;;;14.30;8.80;;;;;;;9.20;86.58;99722.40;101952;1299;74930;-24
2022/10/27 04:17:44;;;;;;;9.30;6.50;;;;;;;9.04;87.44;99728.91;101957;1302;64573;-24
2022/10/27 04:20:12;;;;;;;13.50;8.30;;;;;;;9.38;86.71;99726.54;102189;1298;62791;-25
2022/10/27 04:22:40;;;;;;;13.10;8.80;;;;;;;9.80;85.04;99726.77;102391;1299;76349;-24
2022/10/27 04:25:07;;;;;;;14.30;8.80;;;;;;;9.67;84.80;99725.52;102341;1298;76712;-25
2022/10/27 04:27:35;;;;;;;15.90;9.20;;;;;;;9.36;85.88;99722.83;102182;1301;73020;-24
2022/10/27 04:30:03;;;;;;;15.50;10.20;;;;;;;9.10;87.15;99729.91;102273;1299;62521;-24
2022/10/27 04:32:30;;;;;;;10.20;7.70;;;;;;;8.86;89.01;99730.54;102289;1298;61844;-24
2022/10/27 04:34:58;;;;;;;12.20;8.70;;;;;;;9.32;87.56;99733.88;102257;1291;76157;-24
2022/10/27 04:37:25;;;;;;;13.30;8.80;;;;;;;9.61;85.76;99732.67;102281;1298;75498;-24
2022/10/27 04:39:55;;;;;;;13.40;8.80;;;;;;;9.53;85.60;99731.83;102164;1297;75644;-24
2022/10/27 04:42:22;;;;;;;13.10;8.50;;;;;;;9.33;85.85;99732.75;102181;1298;61727;-24
2022/10/27 04:44:50;;;;;;;10.20;7.10;;;;;;;9.09;87.46;99737.06;102164;1298;62817;-24
2022/10/27 04:47:17;;;;;;;13.80;9.10;;;;;;;9.41;86.51;99737.09;102318;1299;75560;-25
2022/10/27 04:49:45;;;;;;;13.40;9.70;;;;;;;9.78;85.32;99736.24;102292;1298;76805;-24
2022/10/27 04:52:12;;;;;;;12.00;8.40;;;;;;;9.78;84.51;99737.77;102201;1301;75078;-24
2022/10/27 04:54:40;;;;;;;12.40;8.60;;;;;;;9.53;84.82;99740.13;102204;1298;62002;-24
2022/10/27 04:57:08;;;;;;;16.20;9.10;;;;;;;9.25;86.32;99742.08;102309;1298;61679;-24
2022/10/27 04:59:35;;;;;;;11.10;7.30;;;;;;;9.10;87.21;99743.63;102223;1300;75061;-24
2022/10/27 05:02:03;;;;;;;14.10;8.50;;;;;;;9.47;86.19;99748.12;102234;1298;76800;-24
2022/10/27 05:04:31;;;;;;;11.50;8.50;;;;;;;9.81;84.76;99747.45;102244;1291;74179;-24
2022/10/27 05:07:01;;;;;;;15.90;10.00;;;;;;;9.68;84.33;99749.23;102284;1299;62615;-24
2022/10/27 05:09:28;;;;;;;17.60;9.90;;;;;;;9.44;85.53;99757.73;102314;1298;61600;-24
2022/10/27 05:11:56;;;;;;;17.80;11.00;;;;;;;9.20;86.48;99765.14;102308;1297;75049;-24
2022/10/27 05:14:23;;;;;;;12.30;8.40;;;;;;;9.04;87.76;99769.58;102315;1301;76397;-25
2022/10/27 05:16:51;;;;;;;10.70;7.80;;;;;;;9.40;86.61;99772.32;102296;1299;75084;-24
2022/10/27 05:19:18;;;;;;;15.10;9.90;;;;;;;9.78;84.90;99774.18;102268;1299;62522;-24
2022/10/27 05:21:46;;;;;;;16.00;9.80;;;;;;;9.71;84.78;99774.13;102339;1293;61050;-24
2022/10/27 05:24:14;;;;;;;13.10;9.60;;;;;;;9.49;85.23;99777.14;102255;1299;75264;-24
2022/10/27 05:26:42;;;;;;;17.10;9.70;;;;;;;9.26;86.31;99781.17;101590;1298;996832;-24
2022/10/27 05:29:09;;;;;;;12.90;7.80;;;;;;;9.23;87.22;99785.57;102084;1295;75230;-24
2022/10/27 05:31:37;;;;;;;12.60;8.30;;;;;;;9.80;85.37;99786.05;102218;1292;62640;-24
2022/10/27 05:34:05;;;;;;;14.80;9.60;;;;;;;10.04;83.82;99794.52;102221;1294;61477;-24
2022/10/27 05:36:32;;;;;;;13.30;7.80;;;;;;;9.88;83.86;99791.07;102277;1297;75387;-24
2022/10/27 05:39:00;;;;;;;22.00;10.20;;;;;;;9.48;85.23;99797.61;102049;1301;75764;-24
2022/10/27 05:41:29;;;;;;;15.20;9.30;;;;;;;9.38;85.83;99799.35;102181;1298;74241;-25
2022/10/27 05:43:57;;;;;;;13.20;7.70;;;;;;;9.21;86.87;99803.55;102082;1304;63319;-24
2022/10/27 05:46:25;;;;;;;13.70;7.20;;;;;;;9.64;85.74;99801.66;102035;1295;62796;-24
2022/10/27 05:48:53;;;;;;;13.10;8.60;;;;;;;10.02;83.71;99806.76;102265;1293;75392;-24
2022/10/27 05:51:20;;;;;;;15.60;9.10;;;;;;;9.95;83.22;99804.50;102199;1299;75786;-24
2022/10/27 05:53:49;;;;;;;14.30;9.20;;;;;;;9.83;83.88;99809.23;102242;1299;75320;-24
2022/10/27 05:56:17;;;;;;;12.70;8.60;;;;;;;9.65;84.16;99810.76;102081;1290;61853;-24
2022/10/27 05:58:44;;;;;;;12.50;7.40;;;;;;;9.47;85.39;99813.33;102234;1298;61805;-24
2022/10/27 06:01:12;;;;;;;10.30;7.60;;;;;;;9.88;84.97;99816.23;102255;1301;75038;-24
2022/10/27 06:03:40;;;;;;;15.70;8.70;;;;;;;10.21;82.73;99819.35;102342;1301;76772;-24
2022/10/27 06:06:07;;;;;;;15.10;8.20;;;;;;;10.19;82.38;99820.94;102190;1298;74148;-24
2022/10/27 06:08:36;;;;;;;13.50;8.90;;;;;;;9.97;82.85;99826.20;102324;1293;62873;-24
2022/10/27 06:11:04;;;;;;;13.60;8.80;;;;;;;9.78;83.68;99825.04;102334;1299;61774;-24
2022/10/27 06:13:32;;;;;;;8.60;6.10;;;;;;;9.60;84.70;99830.52;102092;1293;75375;-24
2022/10/27 06:15:59;;;;;;;9.90;7.00;;;;;;;9.89;83.98;99831.45;102202;1298;76799;-24
2022/10/27 06:18:27;;;;;;;17.50;7.90;;;;;;;10.18;82.21;99835.18;102158;1301;74862;-24
2022/10/27 06:20:54;;;;;;;12.90;9.20;;;;;;;10.25;82.03;99836.69;102279;1299;62783;-24
2022/10/27 06:23:22;;;;;;;12.80;7.80;;;;;;;9.89;82.96;99839.38;102322;1296;62879;-24
2022/10/27 06:25:49;;;;;;;13.10;6.70;;;;;;;9.78;83.88;99842.73;102288;1298;76647;-24
2022/10/27 06:28:16;;;;;;;9.50;6.00;;;;;;;9.69;84.61;99842.93;102301;1298;76613;-24
2022/10/27 06:30:44;;;;;;;11.30;7.60;;;;;;;10.04;83.61;99844.10;102169;1301;75193;-24
2022/10/27 06:33:11;;;;;;;10.60;7.40;;;;;;;10.33;81.74;99844.60;102323;1297;62806;-24
2022/10/27 06:35:39;;;;;;;12.50;7.60;;;;;;;10.32;81.30;99840.89;102111;1301;61810;-24
2022/10/27 06:38:08;;;;;;;16.50;8.90;;;;;;;10.11;82.58;99849.17;102215;1298;75329;-24
2022/10/27 06:40:35;;;;;;;13.20;8.60;;;;;;;9.81;83.04;99855.70;102346;1298;76652;-24
2022/10/27 06:52:55;;;;;;;12.00;8.30;;;;;;;9.27;86.40;99870.06;99585;1310;615255;-24
2022/10/27 06:55:23;;;;;;;11.90;7.30;;;;;;;9.70;85.16;99872.16;101376;1311;61807;-24
2022/10/27 06:57:51;;;;;;;13.80;8.70;;;;;;;9.92;83.37;99874.05;101433;1312;61918;-24
2022/10/27 07:00:21;;;;;;;13.10;8.30;;;;;;;9.92;83.24;99878.07;101413;1302;74202;-24
2022/10/27 07:02:48;;;;;;;9.60;6.50;;;;;;;9.85;84.13;99878.50;101416;1312;75921;-24
2022/10/27 07:05:17;;;;;;;10.60;6.80;;;;;;;9.74;83.71;99879.04;100568;1308;1210589;-24
2022/10/27 07:07:49;;;;;;;10.40;7.20;;;;;;;10.01;84.02;99883.32;101726;1308;60963;-24
2022/10/27 07:10:20;;;;;;;9.50;7.40;;;;;;;10.38;82.06;99876.57;101357;1310;61856;-24
2022/10/27 07:12:55;;;;;;;12.10;7.40;;;;;;;10.40;82.11;99880.08;101672;1299;73889;-24
2022/10/27 09:00:08;;;;;;;8.50;5.80;;;;;;;11.91;75.65;99917.55;99210;1328;600825;-25
2022/10/27 09:02:36;;;;;;;8.40;5.50;;;;;;;12.01;73.99;99919.46;100728;1303;62923;-25
2022/10/27 09:05:19;;;;;;;9.00;4.80;;;;;;;12.14;72.73;99917.51;101122;1313;62806;-24
2022/10/27 09:08:11;;;;;;;8.30;4.90;;;;;;;12.31;72.49;99920.41;100737;1316;72856;-24
2022/10/27 09:10:55;;;;;;;8.50;5.00;;;;;;;12.66;70.37;99916.21;100719;1312;75747;-24
2022/10/27 09:13:25;;;;;;;8.80;5.30;;;;;;;12.50;69.14;99914.11;100468;1310;1084731;-24
2022/10/27 09:15:54;;;;;;;5.70;3.90;;;;;;;12.38;70.37;99917.11;101352;1311;62883;-24
2022/10/27 09:18:42;;;;;;;5.00;3.60;;;;;;;12.30;70.36;99911.64;101382;1311;62576;-24
2022/10/27 09:21:22;;;;;;;7.20;4.00;;;;;;;12.13;70.86;99912.35;101350;1298;74767;-23
2022/10/27 09:23:56;;;;;;;4.40;3.40;;;;;;;11.88;71.38;99914.33;101300;1311;76496;-24
2022/10/27 09:26:26;;;;;;;5.50;3.70;;;;;;;12.16;71.41;99916.46;101167;1312;75333;-23
2022/10/27 09:28:54;;;;;;;6.20;3.80;;;;;;;12.55;69.64;99911.29;101158;1310;61620;-24
2022/10/27 09:31:27;;;;;;;4.70;3.40;;;;;;;12.28;68.66;99910.57;101320;1306;61740;-24
2022/10/27 09:34:00;;;;;;;7.50;4.40;;;;;;;12.17;69.62;99911.89;101552;1311;74405;-24
2022/10/27 09:36:28;;;;;;;5.20;4.10;;;;;;;12.15;69.02;99914.42;101401;1303;76051;-24
2022/10/27 09:38:55;;;;;;;5.00;3.50;;;;;;;12.02;70.26;99914.70;101481;1311;75202;-24
2022/10/27 09:41:23;;;;;;;5.30;3.60;;;;;;;12.03;70.19;99919.00;101532;1308;61705;-23
2022/10/27 09:43:53;;;;;;;6.80;4.40;;;;;;;11.81;71.08;99917.62;101591;1306;61859;-23
2022/10/27 09:46:26;;;;;;;;;;;;;;;11.91;70.57;99912.73;101647;1305;75305;-24
2022/10/27 09:48:56;;;;;;;6.30;3.30;;;;;;;11.92;70.75;99914.20;101656;1308;76859;-24
2022/10/27 09:51:39;;;;;;;6.10;3.80;;;;;;;11.93;70.65;99913.79;101315;1311;74171;-23
2022/10/27 09:54:06;;;;;;;6.90;4.50;;;;;;;11.64;71.89;99912.02;101429;1305;61881;-23
2022/10/27 09:56:35;;;;;;;6.70;4.80;;;;;;;12.15;71.77;99914.42;101854;1305;62595;-23
2022/10/27 09:59:12;;;;;;;7.10;4.90;;;;;;;12.63;70.03;99915.25;101865;1302;75591;-24
2022/10/27 10:01:42;;;;;;;8.20;4.20;;;;;;;13.08;68.17;99906.08;101660;1308;76656;-24
2022/10/27 10:04:22;;;;;;;8.30;4.30;;;;;;;13.44;66.66;99903.58;101908;1305;74941;-23
2022/10/27 10:06:57;;;;;;;6.10;4.10;;;;;;;13.69;66.59;99910.67;101892;1294;61834;-23
2022/10/27 10:09:29;;;;;;;5.80;3.80;;;;;;;13.70;65.90;99909.77;101929;1289;62075;-24
2022/10/27 10:12:22;;;;;;;5.10;3.80;;;;;;;14.00;64.67;99908.89;101696;1307;75728;-24
2022/10/27 10:15:09;;;;;;;;;;;;;;;14.31;63.89;99906.89;101856;1299;76793;-24
2022/10/27 10:17:40;;;;;;;4.10;3.50;;;;;;;13.83;63.97;99908.30;101879;1297;74073;-24
2022/10/27 10:20:28;;;;;;;5.10;3.00;;;;;;;13.01;66.42;99903.48;101887;1297;62844;-24
2022/10/27 10:22:56;;;;;;;6.50;3.60;;;;;;;12.91;66.32;99905.08;101760;1302;61910;-23
2022/10/27 10:25:29;;;;;;;5.40;3.70;;;;;;;12.76;67.39;99908.01;101870;1303;74668;-24
2022/10/27 10:27:57;;;;;;;;;;;;;;;12.73;68.28;99907.91;101886;1303;76800;-24
2022/10/27 10:30:25;;;;;;;5.40;3.40;;;;;;;12.74;68.66;99906.77;101870;1305;74386;-23
2022/10/27 10:32:56;;;;;;;6.40;2.90;;;;;;;13.02;68.18;99907.73;101843;1308;61616;-23
2022/10/27 10:35:43;;;;;;;7.40;3.00;;;;;;;13.54;67.22;99911.36;101915;1305;62721;-23
2022/10/27 10:38:23;;;;;;;7.90;3.20;;;;;;;13.52;65.39;99907.31;101810;1300;75597;-24
2022/10/27 10:41:03;;;;;;;8.60;3.10;;;;;;;13.70;64.76;99910.94;101840;1308;76564;-25
2022/10/27 10:43:30;;;;;;;4.50;2.50;;;;;;;14.05;65.02;99912.33;101818;1302;74152;-23
2022/10/27 10:45:58;;;;;;;3.50;2.30;;;;;;;13.86;64.14;99915.64;101894;1291;62663;-23
2022/10/27 10:48:50;;;;;;;6.90;3.10;;;;;;;14.00;63.76;99917.66;101901;1302;61898;-23
2022/10/27 10:51:25;;;;;;;7.70;4.00;;;;;;;14.00;64.39;99922.52;101754;1302;75547;-23
2022/10/27 10:54:08;;;;;;;6.50;3.60;;;;;;;14.03;62.71;99919.30;101849;1305;76788;-23
2022/10/27 10:56:36;;;;;;;4.30;2.70;;;;;;;14.04;63.24;99920.06;101735;1307;75085;-23
2022/10/27 10:59:05;;;;;;;7.60;2.80;;;;;;;14.28;62.37;99921.05;101732;1295;61580;-23
2022/10/27 11:01:41;;;;;;;3.70;2.50;;;;;;;13.96;61.50;99914.98;101917;1302;61882;-23
2022/10/27 11:04:13;;;;;;;4.30;2.20;;;;;;;13.66;61.85;99914.95;101711;1302;75351;-23
2022/10/27 11:06:59;;;;;;;3.40;2.10;;;;;;;13.05;62.87;99912.75;101839;1303;76878;-23
2022/10/27 11:09:29;;;;;;;4.50;2.20;;;;;;;12.41;63.53;99912.35;101742;1308;75225;-23
2022/10/27 11:11:57;;;;;;;4.50;2.20;;;;;;;12.35;64.63;99912.30;101898;1305;62872;-23
2022/10/27 11:14:24;;;;;;;9.30;3.00;;;;;;;12.63;64.53;99911.90;101841;1304;61879;-23
2022/10/27 11:16:55;;;;;;;6.00;2.40;;;;;;;13.12;63.47;99911.48;101669;1307;75508;-23
2022/10/27 11:19:23;;;;;;;4.10;2.40;;;;;;;13.63;63.28;99911.02;101821;1302;76746;-23
2022/10/27 11:21:58;;;;;;;5.20;2.60;;;;;;;14.05;61.59;99903.77;101713;1300;74284;-23
2022/10/27 11:24:30;;;;;;;4.20;2.40;;;;;;;14.12;60.46;99911.05;101882;1294;61583;-23
2022/10/27 11:27:03;;;;;;;9.80;2.80;;;;;;;13.92;61.09;99909.21;101572;1303;61556;-23
2022/10/27 11:30:10;;;;;;;3.30;2.60;;;;;;;14.12;60.67;99911.61;101566;1307;75606;-23
2022/10/27 11:33:04;;;;;;;6.40;2.30;;;;;;;13.85;61.11;99913.08;101694;1302;75652;-24
2022/10/27 11:35:40;;;;;;;5.40;2.30;;;;;;;13.72;61.81;99915.30;101778;1304;74252;-23
2022/10/27 11:38:27;;;;;;;4.70;2.60;;;;;;;13.71;61.97;99911.03;101798;1305;63134;-23
2022/10/27 11:41:03;;;;;;;5.20;2.80;;;;;;;13.35;62.05;99912.48;101850;1306;62579;-24
2022/10/27 11:43:39;;;;;;;4.40;2.30;;;;;;;13.02;63.30;99907.92;101881;1306;75347;-24
2022/10/27 11:46:14;;;;;;;4.20;2.90;;;;;;;12.82;63.87;99913.64;101791;1300;76850;-23
2022/10/27 11:48:50;;;;;;;5.30;3.20;;;;;;;12.91;64.33;99912.39;101869;1305;75014;-23
2022/10/27 11:51:21;;;;;;;5.80;3.20;;;;;;;12.89;64.31;99916.37;101877;1305;62776;-23
2022/10/27 11:53:51;;;;;;;9.70;3.00;;;;;;;12.76;64.87;99917.25;101888;1302;61505;-23
2022/10/27 11:56:41;;;;;;;4.30;2.80;;;;;;;12.50;65.15;99911.48;101854;1298;75861;-23
2022/10/27 11:59:23;;;;;;;6.70;2.40;;;;;;;12.30;65.85;99912.29;101868;1299;76759;-24
2022/10/27 12:01:57;;;;;;;7.70;2.80;;;;;;;12.32;66.66;99910.96;101861;1297;75476;-24
2022/10/27 12:04:51;;;;;;;5.40;2.50;;;;;;;12.40;65.95;99916.10;101796;1306;61865;-24
2022/10/27 12:07:43;;;;;;;4.00;2.80;;;;;;;12.69;65.45;99911.98;101768;1305;62058;-24
2022/10/27 12:10:39;;;;;;;5.40;2.60;;;;;;;12.90;64.75;99911.45;101865;1302;74657;-24
2022/10/27 12:13:15;;;;;;;7.50;2.80;;;;;;;13.29;63.75;99911.39;101702;1302;76749;-23
2022/10/27 12:15:58;;;;;;;5.60;3.30;;;;;;;13.18;63.42;99903.49;101725;1300;75395;-23
2022/10/27 12:18:48;;;;;;;5.30;2.50;;;;;;;13.29;64.59;99905.14;101728;1306;62634;-24
2022/10/27 12:21:31;;;;;;;5.00;2.30;;;;;;;13.52;63.56;99902.83;101791;1302;61641;-24
2022/10/27 12:24:36;;;;;;;4.40;2.70;;;;;;;13.65;63.12;99903.67;101960;1302;74636;-23
2022/10/27 12:27:37;;;;;;;5.90;3.10;;;;;;;13.69;63.30;99901.82;101828;1300;74831;-23
2022/10/27 12:30:10;;;;;;;5.50;3.00;;;;;;;13.68;62.64;99897.38;101262;1306;75428;-23
2022/10/27 12:32:40;;;;;;;6.10;2.90;;;;;;;13.73;63.60;99901.81;101842;1294;61601;-23
2022/10/27 12:35:43;;;;;;;4.80;2.80;;;;;;;13.94;62.56;99900.00;101848;1300;62589;-24
2022/10/27 12:39:02;;;;;;;4.50;2.30;;;;;;;13.96;61.61;99902.92;101352;1302;75407;-24
2022/10/27 12:41:31;;;;;;;3.90;2.50;;;;;;;13.96;62.28;99909.02;101717;1302;76469;-24
2022/10/27 12:44:36;;;;;;;3.80;2.60;;;;;;;13.98;62.16;99904.35;101815;1308;75002;-23
2022/10/27 12:47:17;;;;;;;4.70;1.90;;;;;;;13.99;59.62;99898.49;101824;1306;62628;-23
2022/10/27 12:49:50;;;;;;;6.80;2.30;;;;;;;14.07;61.18;99907.98;101786;1308;61465;-24
2022/10/27 12:52:18;;;;;;;3.50;1.80;;;;;;;14.16;60.11;99896.59;101821;1299;73959;-24
2022/10/27 12:55:04;;;;;;;4.60;2.20;;;;;;;14.23;59.87;99890.38;101865;1303;77092;-24
2022/10/27 12:57:54;;;;;;;6.60;2.60;;;;;;;13.97;59.58;99896.58;101762;1306;75307;-24
2022/10/27 13:00:22;;;;;;;5.10;2.60;;;;;;;13.57;60.70;99899.98;101830;1300;61813;-24
2022/10/27 13:03:22;;;;;;;3.50;2.40;;;;;;;13.32;61.73;99902.27;101672;1301;62691;-23
2022/10/27 13:06:31;;;;;;;5.30;2.90;;;;;;;13.37;62.36;99911.15;101867;1302;74964;-23
2022/10/27 13:09:10;;;;;;;3.80;2.30;;;;;;;13.34;62.96;99908.38;101850;1302;76900;-24
2022/10/27 13:11:53;;;;;;;6.20;3.20;;;;;;;13.36;63.21;99909.43;101837;1298;75319;-24
2022/10/27 13:14:33;;;;;;;5.40;3.30;;;;;;;13.25;63.81;99909.64;101786;1303;63004;-24
2022/10/27 13:17:34;;;;;;;6.00;3.10;;;;;;;13.14;64.90;99917.45;101875;1292;61562;-24
2022/10/27 13:20:20;;;;;;;5.10;3.10;;;;;;;13.19;64.21;99914.60;101887;1297;74345;-24
2022/10/27 13:22:53;;;;;;;5.70;2.70;;;;;;;13.18;64.17;99909.65;101877;1305;76702;-24
2022/10/27 13:25:28;;;;;;;4.20;2.70;;;;;;;13.25;64.43;99913.06;101615;1308;74960;-24
2022/10/27 13:28:01;;;;;;;6.70;3.50;;;;;;;13.17;64.76;99911.63;101768;1303;62822;-24
2022/10/27 13:30:30;;;;;;;5.00;2.90;;;;;;;12.98;66.05;99917.31;101789;1302;62283;-24
2022/10/27 13:32:57;;;;;;;2.10;1.90;;;;;;;12.93;66.89;99919.07;101752;1307;76382;-24
2022/10/27 13:35:29;;;;;;;5.00;2.40;;;;;;;13.31;65.24;99915.59;101854;1298;76476;-24
2022/10/27 13:37:58;;;;;;;5.20;3.30;;;;;;;13.55;64.71;99918.05;101853;1300;75490;-24
2022/10/27 13:40:25;;;;;;;8.70;3.90;;;;;;;13.61;64.23;99922.15;101905;1305;63032;-24
2022/10/27 13:43:16;;;;;;;7.30;3.10;;;;;;;13.45;64.66;99920.98;101785;1301;61875;-24
2022/10/27 13:45:47;;;;;;;5.20;3.00;;;;;;;13.37;65.41;99929.08;101703;1302;76172;-24
2022/10/27 13:48:14;;;;;;;5.50;3.20;;;;;;;13.25;65.78;99930.89;101813;1300;75718;-24